Time;durP1;ratioP1;P1;durP2;ratioP2;P2;SDS_P1;SDS_P2;PMS_P1;PMS_P2;Temp;Humidity;BMP_temperature;BMP_pressure;BME280_temperature;BME280_humidity;BME280_pressure;Samples;Min_cycle;Max_cycle;Signal;HPM_P1;HPM_P2
2022/07/01 00:00:30;;;;;;;2.92;1.77;;;17.40;99.90;;;17.79;90.91;100906.84;5210010;28;20568;-69
2022/07/01 00:03:02;;;;;;;4.78;2.28;;;17.40;99.90;;;17.74;90.05;100894.53;5192364;28;20128;-69
2022/07/01 00:05:34;;;;;;;4.43;2.25;;;17.40;99.90;;;17.64;89.88;100904.97;5209811;28;20042;-70
2022/07/01 00:08:06;;;;;;;2.60;1.40;;;17.30;99.90;;;17.61;89.98;100899.69;5209962;28;20128;-71
2022/07/01 00:10:39;;;;;;;3.33;1.20;;;17.30;99.90;;;17.62;90.14;100893.53;5209758;28;20110;-70
2022/07/01 00:13:11;;;;;;;1.50;1.25;;;17.30;99.90;;;17.64;90.06;100888.28;5224959;28;20148;-69
2022/07/01 00:15:44;;;;;;;2.53;1.25;;;17.30;99.90;;;17.58;89.30;100883.84;5209790;28;20069;-70
2022/07/01 00:18:16;;;;;;;2.55;1.10;;;17.20;99.90;;;17.52;89.38;100883.78;5209721;28;20056;-71
2022/07/01 00:20:50;;;;;;;1.83;1.20;;;17.20;99.90;;;17.55;89.52;100893.50;5209652;28;20128;-72
2022/07/01 00:23:23;;;;;;;1.52;1.20;;;17.20;99.90;;;17.56;89.30;100896.13;5225041;28;20057;-69
2022/07/01 00:25:55;;;;;;;1.10;0.90;;;17.20;99.90;;;17.59;89.74;100893.50;5209619;28;20459;-70
2022/07/01 00:28:27;;;;;;;0.73;0.73;;;17.20;99.90;;;17.60;89.78;100897.94;5209457;28;20041;-69
2022/07/01 00:31:01;;;;;;;0.85;0.73;;;17.20;99.90;;;17.60;89.86;100905.84;5209297;28;20617;-70
2022/07/01 00:33:33;;;;;;;1.63;1.00;;;17.20;99.90;;;17.62;89.71;100912.00;5209369;28;20508;-69
2022/07/01 00:36:06;;;;;;;1.55;1.08;;;17.30;99.90;;;17.63;89.75;100908.47;5209353;28;20137;-70
2022/07/01 00:38:38;;;;;;;1.88;0.93;;;17.20;99.90;;;17.64;90.08;100909.34;5209386;28;20128;-70
2022/07/01 00:41:10;;;;;;;2.15;0.90;;;17.20;99.90;;;17.64;90.02;100915.50;5209261;28;20081;-70
2022/07/01 00:43:42;;;;;;;1.17;0.90;;;17.30;99.90;;;17.66;90.26;100912.88;5224497;28;20045;-70
2022/07/01 00:46:16;;;;;;;1.95;1.25;;;17.30;99.90;;;17.66;90.18;100922.53;5209294;28;20144;-70
2022/07/01 00:48:48;;;;;;;1.00;0.88;;;17.30;99.90;;;17.64;90.18;100928.69;5209240;28;20455;-70
2022/07/01 00:51:21;;;;;;;1.35;1.00;;;17.30;99.90;;;17.64;90.32;100933.97;5224461;28;20152;-70
2022/07/01 00:53:53;;;;;;;1.65;1.10;;;17.30;99.90;;;17.66;90.50;100941.00;5209066;28;20073;-69
2022/07/01 00:56:26;;;;;;;1.35;1.00;;;17.20;99.90;;;17.68;90.70;100947.19;5208887;28;20037;-70
2022/07/01 00:58:58;;;;;;;1.17;1.02;;;17.30;99.90;;;17.69;90.91;100948.94;5224410;28;20444;-70
2022/07/01 01:01:32;;;;;;;2.42;1.20;;;17.30;99.90;;;17.71;91.39;100945.47;5208761;28;20417;-70
2022/07/01 01:04:04;;;;;;;2.22;1.10;;;17.30;99.90;;;17.73;91.37;100945.47;5191032;28;20500;-69
2022/07/01 01:06:37;;;;;;;1.90;1.17;;;17.30;99.90;;;17.74;91.22;100940.25;5191453;28;20498;-70
2022/07/01 01:09:09;;;;;;;1.73;1.08;;;17.30;99.90;;;17.75;91.21;100943.75;5223489;28;20081;-69
2022/07/01 01:11:41;;;;;;;1.77;1.20;;;17.30;99.90;;;17.75;91.29;100951.66;5208011;28;20495;-70
2022/07/01 01:14:13;;;;;;;1.85;1.13;;;17.40;99.90;;;17.76;91.46;100963.97;5208643;28;20076;-70
2022/07/01 01:16:47;;;;;;;4.05;1.45;;;17.40;99.90;;;17.77;91.48;100965.75;5190697;28;20136;-69
2022/07/01 01:19:19;;;;;;;3.55;1.15;;;17.40;99.90;;;17.77;91.23;100950.81;5223828;28;20129;-69
2022/07/01 01:21:53;;;;;;;3.55;1.65;;;17.40;99.90;;;17.76;90.57;100950.78;5223707;28;20390;-70
2022/07/01 01:24:25;;;;;;;2.47;1.20;;;17.40;99.90;;;17.75;90.12;100960.47;5208479;28;20069;-70
2022/07/01 01:26:57;;;;;;;2.70;1.65;;;17.30;99.90;;;17.74;89.95;100957.81;5208328;28;20125;-70
2022/07/01 01:29:29;;;;;;;4.20;1.77;;;17.30;99.90;;;17.72;89.84;100970.97;5190570;28;20144;-71
2022/07/01 01:32:02;;;;;;;2.72;1.70;;;17.30;99.90;;;17.67;89.61;100967.41;5207984;28;20045;-70
2022/07/01 01:34:36;;;;;;;2.97;1.80;;;17.30;99.90;;;17.69;90.11;100967.41;5208173;28;20037;-69
2022/07/01 01:37:10;;;;;;;3.80;2.00;;;17.30;99.90;;;17.72;90.37;100975.34;5208255;28;20048;-70
2022/07/01 01:39:42;;;;;;;2.83;1.58;;;17.30;99.90;;;17.73;90.31;100975.38;5208162;28;20124;-69
2022/07/01 01:42:14;;;;;;;3.65;2.05;;;17.30;99.90;;;17.75;90.10;100985.94;5223406;28;20144;-70
2022/07/01 01:44:47;;;;;;;3.83;1.67;;;17.40;99.90;;;17.76;90.13;100992.97;5208007;28;20148;-70
2022/07/01 01:47:19;;;;;;;2.47;1.60;;;17.40;99.90;;;17.77;90.11;100994.75;5207982;28;20406;-69
2022/07/01 01:49:51;;;;;;;2.63;1.77;;;17.40;99.90;;;17.77;89.98;100994.75;5208084;28;20056;-69
2022/07/01 01:52:25;;;;;;;3.70;1.75;;;17.40;99.90;;;17.78;89.77;100980.69;5207714;28;20103;-70
2022/07/01 01:54:57;;;;;;;2.17;1.50;;;17.40;99.90;;;17.76;89.22;100977.16;5207741;28;20072;-69
2022/07/01 01:57:29;;;;;;;2.88;1.70;;;17.40;99.90;;;17.71;88.74;100985.03;5207834;28;20386;-70
2022/07/01 02:00:04;;;;;;;1.73;1.33;;;17.40;99.90;;;17.69;88.44;100978.81;5223509;28;20136;-70
2022/07/01 02:02:43;;;;;;;3.08;1.42;;;17.30;99.90;;;17.68;88.62;100986.72;5207643;28;20128;-70
2022/07/01 02:05:17;;;;;;;1.58;1.13;;;17.30;99.90;;;17.67;88.20;100992.84;5223007;28;20099;-70
2022/07/01 02:07:50;;;;;;;1.27;0.98;;;17.30;99.90;;;17.66;87.81;101001.63;5207685;28;20500;-70
2022/07/01 02:10:22;;;;;;;1.17;0.90;;;17.30;99.90;;;17.66;87.76;101006.91;5207434;28;20069;-70
2022/07/01 02:12:55;;;;;;;2.15;1.00;;;17.30;99.90;;;17.64;87.32;100999.88;5207483;28;20068;-70
2022/07/01 02:15:27;;;;;;;1.23;0.98;;;17.20;99.90;;;17.63;86.83;101013.91;5207458;28;20121;-70
2022/07/01 02:17:59;;;;;;;1.85;0.93;;;17.20;99.90;;;17.61;86.49;101007.75;5207418;28;20041;-70
2022/07/01 02:20:31;;;;;;;1.02;0.77;;;17.20;99.90;;;17.58;86.17;101013.00;5207069;28;20125;-70
2022/07/01 02:23:05;;;;;;;1.05;0.90;;;17.20;99.90;;;17.58;86.01;101009.47;5207406;28;20456;-71
2022/07/01 02:25:37;;;;;;;0.80;0.80;;;17.20;99.90;;;17.54;85.96;101011.22;5207204;28;20051;-70
2022/07/01 02:28:10;;;;;;;1.63;0.90;;;17.20;99.90;;;17.55;85.95;101012.97;5207348;28;20135;-70
2022/07/01 02:30:42;;;;;;;1.63;0.77;;;17.20;99.90;;;17.53;85.96;101022.59;5207280;28;20076;-71
2022/07/01 02:33:14;;;;;;;0.63;0.63;;;17.20;99.90;;;17.53;85.90;101033.13;5189404;28;20142;-70
2022/07/01 02:35:46;;;;;;;1.42;0.82;;;17.20;99.90;;;17.52;85.90;101052.47;5207074;28;20116;-70
2022/07/01 02:38:20;;;;;;;2.15;0.80;;;17.10;99.90;;;17.53;85.75;101048.06;5207110;28;20100;-71
2022/07/01 02:40:52;;;;;;;1.52;0.80;;;17.10;99.90;;;17.53;85.60;101043.69;5206970;28;20378;-70
2022/07/01 02:43:24;;;;;;;0.82;0.70;;;17.10;99.90;;;17.54;85.08;101044.56;5207119;28;20069;-69
2022/07/01 02:45:57;;;;;;;1.80;0.90;;;17.20;99.90;;;17.54;85.11;101060.38;5206914;28;20404;-70
2022/07/01 02:48:29;;;;;;;2.15;0.70;;;17.20;99.90;;;17.55;84.69;101084.13;5206845;28;20049;-70
2022/07/01 02:51:02;;;;;;;0.77;0.75;;;17.20;99.90;;;17.54;84.70;101084.09;5222137;28;20428;-69
2022/07/01 02:53:35;;;;;;;1.52;0.88;;;17.20;99.90;;;17.56;83.94;101085.91;5206691;28;20041;-69
2022/07/01 02:56:07;;;;;;;1.20;0.80;;;17.20;99.90;;;17.59;83.53;101090.31;5206693;28;20406;-69
2022/07/01 02:58:40;;;;;;;3.83;0.90;;;17.20;99.90;;;17.60;82.95;101079.81;5206749;28;20099;-70
2022/07/01 03:01:12;;;;;;;0.73;0.70;;;17.20;99.90;;;17.61;83.75;101073.66;5206462;28;20049;-70
2022/07/01 03:03:44;;;;;;;0.80;0.77;;;17.20;99.90;;;17.63;83.98;101084.22;5206654;28;20048;-70
2022/07/01 03:06:16;;;;;;;0.73;0.73;;;17.30;99.90;;;17.64;83.94;101084.22;5206518;28;20411;-70
2022/07/01 03:08:50;;;;;;;0.75;0.63;;;17.30;99.90;;;17.64;83.28;101078.06;5206427;28;20132;-70
2022/07/01 03:11:22;;;;;;;0.80;0.80;;;17.30;99.90;;;17.62;82.21;101072.78;5206389;28;20055;-70
2022/07/01 03:13:54;;;;;;;0.98;0.88;;;17.20;99.90;;;17.62;82.10;101069.28;5206438;28;20117;-69
2022/07/01 03:16:27;;;;;;;1.13;0.90;;;17.30;99.90;;;17.60;82.01;101061.34;5206354;28;20076;-70
2022/07/01 03:18:59;;;;;;;1.15;0.60;;;17.20;99.90;;;17.58;82.03;101055.16;5221572;28;20144;-70
2022/07/01 03:21:31;;;;;;;1.45;0.80;;;17.20;99.90;;;17.58;82.42;101063.06;5188549;28;20398;-70
2022/07/01 03:24:05;;;;;;;2.53;1.13;;;17.20;99.90;;;17.57;82.14;101061.31;5206378;28;20454;-70
2022/07/01 03:26:37;;;;;;;0.93;0.80;;;17.20;99.90;;;17.57;82.60;101066.56;5206124;28;20077;-70
2022/07/01 03:29:09;;;;;;;0.60;0.60;;;17.20;99.90;;;17.56;82.33;101067.44;5206175;28;20050;-69
2022/07/01 03:31:42;;;;;;;0.70;0.70;;;17.20;99.90;;;17.58;81.43;101075.38;5206045;28;20054;-70
2022/07/01 03:34:14;;;;;;;1.20;0.90;;;17.20;99.90;;;17.56;81.33;101069.22;5205424;28;20131;-70
2022/07/01 03:36:46;;;;;;;1.20;0.80;;;17.20;99.90;;;17.57;81.45;101071.84;5206048;28;20553;-69
2022/07/01 03:39:20;;;;;;;1.00;0.90;;;17.20;99.90;;;17.58;81.84;101070.97;5206130;28;20116;-70
2022/07/01 03:41:52;;;;;;;0.98;0.60;;;17.20;99.90;;;17.59;82.37;101059.56;5205920;28;20049;-70
2022/07/01 03:44:24;;;;;;;0.57;0.57;;;17.20;99.90;;;17.60;81.76;101055.16;5205996;28;20497;-70
2022/07/01 03:46:56;;;;;;;0.70;0.70;;;17.20;99.90;;;17.60;81.96;101044.63;5205990;28;20462;-70
2022/07/01 03:49:29;;;;;;;0.80;0.68;;;17.20;99.90;;;17.60;82.34;101042.00;5221520;28;20140;-70
2022/07/01 03:52:01;;;;;;;0.70;0.70;;;17.20;99.90;;;17.59;82.50;101038.47;5221148;28;20053;-70
2022/07/01 03:54:37;;;;;;;1.05;0.90;;;17.20;99.90;;;17.58;82.49;101052.53;5188131;28;20494;-71
2022/07/01 03:57:10;;;;;;;2.05;0.82;;;17.20;99.90;;;17.60;82.59;101057.81;5220989;28;20100;-69
2022/07/01 03:59:43;;;;;;;1.67;0.60;;;17.20;99.90;;;17.60;82.32;101069.25;5205801;28;20045;-69
2022/07/01 04:02:15;;;;;;;1.98;0.70;;;17.20;99.90;;;17.61;82.20;101065.75;5205655;28;20556;-70
2022/07/01 04:04:47;;;;;;;1.63;0.50;;;17.30;99.90;;;17.61;82.15;101057.84;5205750;28;20052;-69
2022/07/01 04:07:20;;;;;;;0.93;0.63;;;17.20;99.90;;;17.62;81.86;101070.16;5205943;28;20124;-70
2022/07/01 04:09:54;;;;;;;0.88;0.73;;;17.30;99.90;;;17.62;81.71;101070.16;5187972;28;20421;-69
2022/07/01 04:12:26;;;;;;;1.00;0.88;;;17.30;99.90;;;17.63;81.64;101053.47;5205536;28;20045;-70
2022/07/01 04:14:58;;;;;;;1.08;0.85;;;17.30;99.90;;;17.65;81.69;101053.47;5205614;28;20117;-70
2022/07/01 04:17:30;;;;;;;0.68;0.63;;;17.30;99.90;;;17.63;81.65;101055.22;5221024;28;20583;-70
2022/07/01 04:20:03;;;;;;;0.82;0.70;;;17.30;99.90;;;17.59;82.00;101046.38;5205665;28;20080;-70
2022/07/01 04:22:35;;;;;;;1.10;0.60;;;17.20;99.90;;;17.59;82.69;101048.13;5205525;28;20048;-70
2022/07/01 04:25:10;;;;;;;1.10;1.00;;;17.20;99.90;;;17.59;82.98;101046.38;5205571;28;20045;-69
2022/07/01 04:27:42;;;;;;;0.98;0.63;;;17.20;99.90;;;17.59;82.63;101054.28;5205448;28;20045;-70
2022/07/01 04:30:14;;;;;;;1.27;0.95;;;17.20;99.90;;;17.61;82.68;101060.47;5205511;28;20038;-71
2022/07/01 04:32:46;;;;;;;2.47;0.73;;;17.20;99.90;;;17.61;82.41;101063.13;5220829;28;20562;-70
2022/07/01 04:35:19;;;;;;;1.88;0.82;;;17.20;99.90;;;17.62;82.18;101070.16;5205465;28;20134;-70
2022/07/01 04:37:51;;;;;;;3.42;0.98;;;17.30;99.90;;;17.64;81.85;101071.03;5205480;28;20050;-70
2022/07/01 04:40:24;;;;;;;0.60;0.60;;;17.30;99.90;;;17.68;81.71;101076.38;5205557;28;20136;-71
2022/07/01 04:42:56;;;;;;;2.58;0.90;;;17.30;99.90;;;17.70;81.12;101079.88;5187901;28;20132;-70
2022/07/01 04:45:28;;;;;;;1.70;0.77;;;17.30;99.90;;;17.70;80.32;101071.97;5208341;28;20091;-70
2022/07/01 04:48:00;;;;;;;1.70;1.00;;;17.30;99.90;;;17.67;79.70;101067.56;5191663;28;20130;-69
2022/07/01 04:50:32;;;;;;;1.42;1.00;;;17.30;99.90;;;17.66;79.86;101064.91;5209130;28;20412;-70
2022/07/01 04:53:04;;;;;;;0.90;0.80;;;17.30;99.90;;;17.62;79.68;101064.00;5208973;28;20037;-71
2022/07/01 04:55:38;;;;;;;0.80;0.80;;;17.30;99.90;;;17.60;79.86;101056.09;5209118;28;20041;-69
2022/07/01 04:58:10;;;;;;;2.05;0.90;;;17.30;99.90;;;17.58;79.90;101052.53;5321453;22;20064;-72
2022/07/01 05:00:42;;;;;;;1.60;0.93;;;17.20;99.90;;;17.56;80.23;101040.22;5208886;28;20045;-72
2022/07/01 05:03:15;;;;;;;0.73;0.73;;;17.20;99.90;;;17.56;80.53;101032.31;5208929;28;20105;-72
2022/07/01 05:05:48;;;;;;;1.15;0.70;;;17.20;99.90;;;17.54;80.88;101037.56;5208985;28;20324;-73
2022/07/01 05:08:20;;;;;;;3.08;0.98;;;17.20;99.90;;;17.49;81.08;101044.53;5209063;28;20045;-72
2022/07/01 05:10:54;;;;;;;0.80;0.80;;;17.20;99.90;;;17.45;81.17;101039.22;5209140;28;20048;-71
2022/07/01 05:13:26;;;;;;;2.03;0.90;;;17.10;99.90;;;17.44;80.97;101043.59;5209371;28;20404;-72
2022/07/01 05:15:58;;;;;;;1.85;0.70;;;17.10;99.90;;;17.43;80.89;101041.84;5209435;28;20501;-72
2022/07/01 05:24:10;;;;;;;1.20;0.77;;;17.10;99.90;;;17.45;80.56;101050.63;5207197;28;20128;-71
2022/07/01 05:26:43;;;;;;;1.10;0.95;;;17.10;99.90;;;17.50;80.63;101062.09;5223640;28;20045;-72
2022/07/01 05:29:16;;;;;;;1.70;0.98;;;17.10;99.90;;;17.53;80.42;101059.50;5208242;28;20119;-72
2022/07/01 05:31:49;;;;;;;1.90;0.95;;;17.20;99.90;;;17.59;80.18;101058.69;5206997;28;20088;-72
2022/07/01 05:34:21;;;;;;;2.47;0.93;;;17.20;99.90;;;17.61;80.10;101065.75;5206780;28;20148;-72
2022/07/01 05:36:53;;;;;;;0.98;0.77;;;17.20;99.90;;;17.66;79.91;101075.44;5208175;28;20117;-72
2022/07/01 05:39:26;;;;;;;4.25;1.30;;;17.30;99.90;;;17.67;79.53;101071.94;5208394;28;20049;-72
2022/07/01 05:41:59;;;;;;;1.75;0.88;;;17.30;99.90;;;17.67;79.11;101079.84;5223292;28;20058;-70
2022/07/01 05:44:31;;;;;;;2.88;0.95;;;17.30;99.90;;;17.67;78.89;101093.94;5207960;28;20051;-72
2022/07/01 05:47:04;;;;;;;3.10;1.00;;;17.30;99.90;;;17.72;79.39;101101.91;5223413;28;20494;-72
2022/07/01 05:49:36;;;;;;;1.13;0.80;;;17.30;99.90;;;17.78;79.18;101096.69;5207895;28;20046;-71
2022/07/01 05:52:09;;;;;;;0.90;0.75;;;17.40;99.90;;;17.83;78.39;101095.88;5223196;28;20073;-72
2022/07/01 05:54:41;;;;;;;1.38;0.80;;;17.40;99.90;;;17.86;78.28;101101.16;5207796;28;20128;-72
2022/07/01 05:57:14;;;;;;;2.42;1.00;;;17.50;99.90;;;17.93;77.60;101096.88;5207018;28;20448;-72
2022/07/01 05:59:47;;;;;;;2.55;0.85;;;17.60;99.90;;;17.96;77.07;101085.44;5207706;28;20073;-72
2022/07/01 06:02:19;;;;;;;1.40;1.10;;;17.60;99.90;;;18.00;77.01;101081.97;5207673;28;20136;-72
2022/07/01 06:04:51;;;;;;;2.33;0.80;;;17.60;99.90;;;18.02;76.75;101083.75;5207703;28;20041;-73
2022/07/01 06:07:23;;;;;;;0.75;0.70;;;17.70;99.90;;;18.08;76.71;101102.28;5207654;28;20047;-73
2022/07/01 06:09:56;;;;;;;1.70;0.85;;;17.70;99.90;;;18.10;76.20;101092.59;5207703;28;20041;-75
2022/07/01 06:12:29;;;;;;;1.00;0.90;;;17.70;99.90;;;18.12;76.17;101093.50;5207371;28;20148;-72
2022/07/01 06:15:01;;;;;;;1.02;0.70;;;17.80;99.90;;;18.17;76.58;101117.28;5207434;28;20045;-74
2022/07/01 06:17:34;;;;;;;1.27;1.00;;;17.80;99.90;;;18.20;76.43;101117.34;5207354;28;20052;-74
2022/07/01 06:20:08;;;;;;;2.55;0.90;;;17.80;99.90;;;18.26;76.55;101127.06;5207333;28;20140;-71
2022/07/01 06:22:40;;;;;;;1.20;1.10;;;17.90;99.90;;;18.30;76.42;101135.00;5207236;28;20045;-73
2022/07/01 06:25:12;;;;;;;2.22;1.00;;;17.90;99.90;;;18.29;75.90;101137.63;5207074;28;20037;-72
2022/07/01 06:27:46;;;;;;;1.02;0.93;;;17.90;99.90;;;18.32;76.02;101127.09;5205930;28;20051;-75
2022/07/01 06:30:18;;;;;;;0.85;0.77;;;17.90;99.90;;;18.33;76.28;101128.88;5207099;28;20386;-74
2022/07/01 06:32:50;;;;;;;0.85;0.82;;;17.90;99.90;;;18.39;76.38;101116.63;5206986;28;20045;-74
2022/07/01 06:35:22;;;;;;;1.92;0.90;;;18.00;99.90;;;18.48;76.64;101134.28;5206891;28;20120;-74
2022/07/01 06:37:55;;;;;;;3.38;1.00;;;18.10;99.90;;;18.61;76.55;101161.66;5206988;28;20493;-74
2022/07/01 06:40:27;;;;;;;2.00;0.98;;;18.10;99.90;;;18.73;75.46;101145.94;5205584;28;20068;-73
2022/07/01 06:43:00;;;;;;;1.40;1.05;;;18.20;99.90;;;18.85;74.65;101143.38;5222141;28;20053;-74
2022/07/01 06:45:33;;;;;;;2.13;1.02;;;18.40;99.90;;;19.05;74.55;101145.25;5206748;28;20539;-73
2022/07/01 06:48:06;;;;;;;1.02;0.88;;;18.50;99.90;;;19.24;73.69;101155.94;5206713;28;20045;-73
2022/07/01 06:50:38;;;;;;;1.23;1.00;;;18.70;99.90;;;19.48;73.27;101159.56;5205391;28;20164;-74
2022/07/01 06:53:10;;;;;;;3.75;1.10;;;18.80;99.90;;;19.72;72.62;101150.88;5206706;28;20128;-75
2022/07/01 06:55:42;;;;;;;3.92;1.27;;;19.10;99.90;;;19.82;71.01;101143.81;5205180;28;20051;-75
2022/07/01 06:58:16;;;;;;;1.55;0.90;;;19.20;99.90;;;19.84;70.18;101152.66;5206404;28;20127;-74
2022/07/01 07:00:48;;;;;;;4.13;1.00;;;19.30;99.90;;;19.83;70.17;101157.06;5206514;28;20045;-74
2022/07/01 07:03:20;;;;;;;1.55;1.00;;;19.30;99.90;;;19.93;70.09;101136.81;5206555;28;20124;-74
2022/07/01 07:05:53;;;;;;;2.55;0.95;;;19.30;99.90;;;20.04;69.09;101133.28;5206491;28;20047;-74
2022/07/01 07:08:25;;;;;;;2.25;0.90;;;19.50;99.90;;;20.05;68.91;101143.00;5206508;28;20041;-53
2022/07/01 07:10:58;;;;;;;1.75;0.93;;;19.50;99.90;;;20.09;69.29;101149.19;5206139;28;20128;-55
2022/07/01 07:13:31;;;;;;;1.92;0.80;;;19.50;99.90;;;20.16;68.95;101158.03;5206174;28;20041;-55
2022/07/01 07:16:05;;;;;;;2.17;0.95;;;19.60;99.90;;;20.16;68.57;101173.91;5212891;28;20051;-53
2022/07/01 07:18:37;;;;;;;1.20;0.90;;;19.60;99.90;;;20.14;68.35;101173.88;5226740;28;20223;-52
2022/07/01 07:21:09;;;;;;;3.80;0.98;;;19.70;99.90;;;20.12;68.41;101158.88;5222614;28;20052;-53
2022/07/01 07:23:41;;;;;;;1.35;0.80;;;19.70;99.90;;;20.04;67.24;101161.53;5214105;28;20041;-52
2022/07/01 07:26:13;;;;;;;1.35;0.82;;;19.60;99.90;;;19.99;67.88;101179.16;5213973;28;20533;-54
2022/07/01 07:28:47;;;;;;;1.85;0.80;;;19.60;99.90;;;19.94;67.98;101187.06;5226211;28;20116;-53
2022/07/01 07:31:19;;;;;;;2.60;0.93;;;19.60;99.90;;;19.92;68.18;101182.66;5226533;28;20041;-53
2022/07/01 07:33:51;;;;;;;1.92;0.90;;;19.60;99.90;;;19.98;68.12;101182.69;5226479;28;20041;-52
2022/07/01 07:36:23;;;;;;;2.80;0.82;;;19.60;99.90;;;20.03;68.21;101188.88;5216248;28;20049;-53
2022/07/01 07:38:55;;;;;;;0.77;0.75;;;19.70;99.90;;;20.05;67.20;101180.03;5221452;28;20087;-52
2022/07/01 07:41:28;;;;;;;1.48;0.75;;;19.70;99.70;;;20.14;67.17;101179.16;5217819;28;20044;-52
2022/07/01 07:44:01;;;;;;;1.23;0.70;;;19.70;99.80;;;20.21;66.41;101196.84;5203295;28;20045;-54
2022/07/01 07:46:33;;;;;;;2.38;1.00;;;19.80;99.60;;;20.27;66.01;101190.66;5218148;28;20048;-54
2022/07/01 07:49:05;;;;;;;0.95;0.88;;;19.80;99.40;;;20.37;65.81;101192.44;5205918;28;20049;-54
2022/07/01 07:51:37;;;;;;;0.75;0.75;;;19.90;99.40;;;20.53;65.76;101201.31;5204182;28;20065;-53
2022/07/01 07:54:09;;;;;;;0.70;0.70;;;20.10;99.50;;;20.59;65.18;101203.97;5218476;28;20459;-53
2022/07/01 07:56:42;;;;;;;1.77;0.80;;;20.10;99.20;;;20.60;64.87;101195.13;5216433;28;20084;-53
2022/07/01 07:59:15;;;;;;;2.95;0.75;;;20.10;98.90;;;20.63;64.74;101200.44;5208912;28;20052;-52
2022/07/01 08:01:47;;;;;;;1.83;0.80;;;20.10;98.80;;;20.64;64.42;101196.91;5209678;28;20041;-66
2022/07/01 08:04:20;;;;;;;1.25;0.77;;;20.20;98.70;;;20.58;64.42;101196.91;5217748;28;20368;-73
2022/07/01 08:06:52;;;;;;;1.75;0.82;;;20.20;98.60;;;20.46;65.28;101194.25;5207386;28;20080;-58
2022/07/01 08:09:24;;;;;;;1.95;1.02;;;20.00;99.00;;;20.45;65.56;101195.13;5210307;28;20748;-57
2022/07/01 08:11:56;;;;;;;5.20;0.85;;;20.00;99.20;;;20.46;66.08;101192.47;5215117;28;20068;-59
2022/07/01 08:14:30;;;;;;;1.67;0.70;;;20.10;99.30;;;20.53;65.22;101190.72;5214922;28;20060;-58
2022/07/01 08:17:02;;;;;;;2.13;0.90;;;20.10;98.90;;;20.53;65.01;101194.25;5212825;28;20124;-57
2022/07/01 08:19:34;;;;;;;1.55;0.90;;;20.10;98.80;;;20.51;65.66;101196.00;5221296;28;20140;-57
2022/07/01 08:22:07;;;;;;;4.07;1.08;;;20.10;99.00;;;20.71;65.48;101213.69;5224286;28;20045;-54
2022/07/01 08:24:39;;;;;;;1.55;0.70;;;20.20;99.10;;;20.90;64.97;101209.25;5227894;28;20120;-56
2022/07/01 08:27:12;;;;;;;2.88;0.82;;;20.40;98.90;;;21.08;64.05;101219.84;5223560;28;20045;-55
2022/07/01 08:29:45;;;;;;;1.10;0.90;;;20.50;98.50;;;21.42;62.13;101215.34;5231845;28;20131;-57
2022/07/01 08:32:18;;;;;;;2.05;1.13;;;20.70;97.90;;;22.32;60.87;101211.41;5220492;28;20132;-58
2022/07/01 08:34:50;;;;;;;1.85;0.90;;;21.10;98.00;;;22.65;58.94;101215.59;5189399;28;20122;-59
2022/07/01 08:37:22;;;;;;;0.70;0.63;;;21.40;97.20;;;22.49;58.26;101220.13;5199187;28;20045;-60
2022/07/01 08:39:54;;;;;;;1.70;1.00;;;21.40;96.60;;;22.19;58.98;101226.53;5223395;28;20435;-57
2022/07/01 08:42:26;;;;;;;1.08;0.90;;;21.30;96.30;;;21.86;59.95;101225.81;5230447;28;20045;-58
2022/07/01 08:45:00;;;;;;;1.65;1.00;;;21.20;96.50;;;21.54;60.96;101227.72;5218126;28;20048;-57
2022/07/01 08:47:32;;;;;;;1.67;0.90;;;20.90;96.70;;;21.29;61.83;101219.81;5229036;28;20040;-59
2022/07/01 08:50:05;;;;;;;1.90;0.95;;;20.80;97.00;;;21.19;62.61;101220.72;5232714;28;20051;-57
2022/07/01 08:52:37;;;;;;;1.45;0.90;;;20.70;97.30;;;21.13;62.87;101212.75;5232257;28;20132;-58
2022/07/01 08:55:10;;;;;;;2.55;0.93;;;20.60;97.40;;;21.15;63.03;101205.69;5230688;28;20041;-58
2022/07/01 08:57:42;;;;;;;2.97;0.90;;;20.60;97.50;;;21.22;63.21;101204.78;5230739;28;20405;-59
2022/07/01 09:00:18;;;;;;;2.78;1.00;;;20.70;97.60;;;21.50;62.50;101207.38;5230875;28;20045;-56
2022/07/01 09:02:56;;;;;;;2.15;1.00;;;20.80;97.60;;;22.07;60.68;101205.34;5228302;28;20045;-56
2022/07/01 09:05:30;;;;;;;2.72;0.98;;;21.10;97.20;;;22.66;58.68;101202.28;5223305;28;20047;-56
2022/07/01 09:08:05;;;;;;;1.98;0.90;;;21.50;96.50;;;23.00;57.25;101213.50;5231644;28;20052;-57
2022/07/01 09:10:38;;;;;;;1.65;0.82;;;21.80;95.70;;;23.08;56.80;101209.91;5232036;28;20079;-57
2022/07/01 09:13:13;;;;;;;1.83;1.02;;;22.00;95.30;;;23.19;56.04;101223.97;5231584;28;20049;-59
2022/07/01 09:15:46;;;;;;;;;;;22.10;94.80;;;22.95;56.05;101226.00;5231792;28;20053;-58
2022/07/01 09:18:18;;;;;;;1.52;0.82;;;22.00;94.20;;;22.66;56.79;101225.31;5231420;28;20027;-58
2022/07/01 09:20:51;;;;;;;3.55;1.20;;;21.90;94.30;;;22.42;57.70;101224.59;5225092;28;20045;-58
2022/07/01 09:23:23;;;;;;;1.33;0.90;;;21.80;94.50;;;22.29;58.08;101225.56;5226177;28;20135;-58
2022/07/01 09:25:55;;;;;;;0.80;0.80;;;21.60;94.70;;;22.42;58.13;101223.72;5230485;28;20047;-58
2022/07/01 09:28:27;;;;;;;1.52;0.90;;;21.70;94.90;;;22.62;57.13;101223.56;5230125;28;20501;-58
2022/07/01 09:31:01;;;;;;;1.00;0.90;;;21.80;94.50;;;22.97;56.42;101223.31;5229312;28;20114;-57
2022/07/01 09:33:33;;;;;;;3.20;1.10;;;22.00;94.30;;;23.17;55.81;101228.44;5230229;28;20055;-60
2022/07/01 09:36:06;;;;;;;1.63;0.82;;;22.10;93.90;;;23.17;54.86;101228.44;5231743;28;20087;-60
2022/07/01 09:38:48;;;;;;;0.85;0.82;;;22.20;93.10;;;22.97;53.94;101228.63;5231748;28;20049;-57
2022/07/01 09:41:24;;;;;;;2.75;0.80;;;22.20;92.30;;;22.78;54.73;101222.56;5231204;28;20033;-58
2022/07/01 09:44:05;;;;;;;1.17;0.70;;;22.00;92.30;;;22.75;54.59;101235.84;5230456;28;20114;-59
2022/07/01 09:46:39;;;;;;;0.70;0.70;;;22.00;92.20;;;22.93;54.58;101233.06;5229391;28;20052;-59
2022/07/01 09:49:11;;;;;;;1.13;0.90;;;22.10;92.30;;;22.98;54.00;101225.06;5231285;28;20051;-59
2022/07/01 09:51:44;;;;;;;1.40;0.70;;;22.20;91.80;;;22.97;54.06;101231.28;5224924;28;20049;-58
2022/07/01 09:54:17;;;;;;;3.13;1.02;;;22.20;91.70;;;23.20;54.67;101233.72;5209029;28;20041;-60
2022/07/01 09:56:49;;;;;;;1.63;0.80;;;22.30;92.20;;;23.39;53.48;101232.63;5216704;28;20049;-61
2022/07/01 09:59:21;;;;;;;1.45;0.82;;;22.50;91.60;;;23.67;51.87;101240.31;5208665;28;20575;-59
2022/07/01 10:01:55;;;;;;;2.17;0.80;;;22.70;90.30;;;23.82;50.52;101241.00;5208185;28;20049;-59
2022/07/01 10:04:28;;;;;;;1.85;0.70;;;22.90;88.80;;;24.02;nan;101240.75;5208520;28;20490;-59
2022/07/01 10:07:25;;;;;;;1.13;0.60;;;23.10;87.70;;;24.43;49.18;101235.75;5208236;28;20446;-59
2022/07/01 10:10:17;;;;;;;2.22;0.88;;;23.40;86.10;;;24.82;49.38;101239.56;5187605;28;20046;-59
2022/07/01 10:12:53;;;;;;;2.83;1.30;;;23.70;85.90;;;25.09;47.96;101230.22;5187652;28;20045;-60
2022/07/01 10:15:26;;;;;;;4.13;1.20;;;24.10;83.80;;;25.31;47.17;101228.06;5187150;28;20125;-59
2022/07/01 10:18:00;;;;;;;1.55;0.90;;;24.30;82.90;;;25.33;47.01;101223.56;5187694;28;20052;-59
2022/07/01 10:20:32;;;;;;;1.42;1.05;;;24.40;81.20;;;25.37;46.45;101228.81;5187750;28;20132;-58
2022/07/01 10:23:07;;;;;;;0.75;0.63;;;24.50;80.00;;;25.54;46.53;101225.78;5187969;28;20587;-58
2022/07/01 10:25:45;;;;;;;2.97;0.80;;;24.60;79.70;;;25.76;46.14;101223.59;5187814;28;20050;-59
2022/07/01 10:28:26;;;;;;;2.13;0.80;;;24.80;78.60;;;25.64;45.08;101226.50;5207618;28;20044;-60
2022/07/01 10:31:04;;;;;;;1.77;0.68;;;24.70;76.70;;;25.49;44.93;101233.00;5216703;28;20045;-60
2022/07/01 10:33:45;;;;;;;2.15;0.50;;;24.70;76.60;;;25.32;44.13;101230.69;5220079;28;20045;-60
2022/07/01 10:36:26;;;;;;;1.35;0.70;;;24.50;74.20;;;25.11;44.18;101226.63;5216526;28;20098;-61
2022/07/01 10:39:22;;;;;;;1.65;0.88;;;24.30;73.80;;;24.96;44.59;101234.84;5190932;28;20128;-59
2022/07/01 10:42:00;;;;;;;1.85;0.60;;;24.20;74.00;;;24.95;44.75;101232.22;5213576;28;20124;-58